sensor_id;sensor_type;location;lat;lon;timestamp;P1;durP1;ratioP1;P2;durP2;ratioP2
22768;SDS011;13001;51.968;5.918;2022-07-11T00:00:03;552.75;;;507.88;;
22768;SDS011;13001;51.968;5.918;2022-07-11T00:02:30;541.60;;;498.65;;
22768;SDS011;13001;51.968;5.918;2022-07-11T00:04:58;535.20;;;493.00;;
22768;SDS011;13001;51.968;5.918;2022-07-11T00:07:25;543.13;;;498.97;;
22768;SDS011;13001;51.968;5.918;2022-07-11T00:09:52;546.03;;;502.32;;
22768;SDS011;13001;51.968;5.918;2022-07-11T00:12:20;532.52;;;489.00;;
22768;SDS011;13001;51.968;5.918;2022-07-11T00:14:48;532.90;;;490.28;;
22768;SDS011;13001;51.968;5.918;2022-07-11T00:17:15;525.53;;;483.90;;
22768;SDS011;13001;51.968;5.918;2022-07-11T00:19:42;507.17;;;467.18;;
22768;SDS011;13001;51.968;5.918;2022-07-11T00:22:09;499.50;;;460.00;;
22768;SDS011;13001;51.968;5.918;2022-07-11T00:24:37;506.95;;;467.18;;
22768;SDS011;13001;51.968;5.918;2022-07-11T00:27:04;516.90;;;475.38;;
22768;SDS011;13001;51.968;5.918;2022-07-11T00:29:32;506.73;;;466.18;;
22768;SDS011;13001;51.968;5.918;2022-07-11T00:31:59;500.83;;;461.20;;
22768;SDS011;13001;51.968;5.918;2022-07-11T00:34:26;513.45;;;472.60;;
22768;SDS011;13001;51.968;5.918;2022-07-11T00:36:54;504.27;;;464.65;;
22768;SDS011;13001;51.968;5.918;2022-07-11T00:39:21;511.30;;;470.95;;
22768;SDS011;13001;51.968;5.918;2022-07-11T00:41:50;496.15;;;457.25;;
22768;SDS011;13001;51.968;5.918;2022-07-11T00:44:17;502.62;;;462.70;;
22768;SDS011;13001;51.968;5.918;2022-07-11T00:46:44;495.48;;;456.30;;
22768;SDS011;13001;51.968;5.918;2022-07-11T00:49:12;483.77;;;445.40;;
22768;SDS011;13001;51.968;5.918;2022-07-11T00:51:39;505.13;;;465.00;;
22768;SDS011;13001;51.968;5.918;2022-07-11T00:54:06;493.37;;;454.30;;
22768;SDS011;13001;51.968;5.918;2022-07-11T00:56:34;484.70;;;446.47;;
22768;SDS011;13001;51.968;5.918;2022-07-11T00:59:02;502.37;;;462.45;;
22768;SDS011;13001;51.968;5.918;2022-07-11T01:01:29;503.35;;;464.27;;
22768;SDS011;13001;51.968;5.918;2022-07-11T01:03:58;503.48;;;464.57;;
22768;SDS011;13001;51.968;5.918;2022-07-11T01:06:25;504.62;;;465.58;;
22768;SDS011;13001;51.968;5.918;2022-07-11T01:08:52;499.52;;;460.80;;
22768;SDS011;13001;51.968;5.918;2022-07-11T01:11:20;501.02;;;462.45;;
22768;SDS011;13001;51.968;5.918;2022-07-11T01:13:47;518.48;;;477.73;;
22768;SDS011;13001;51.968;5.918;2022-07-11T01:16:20;517.00;;;475.92;;
22768;SDS011;13001;51.968;5.918;2022-07-11T01:18:52;504.77;;;465.80;;
22768;SDS011;13001;51.968;5.918;2022-07-11T01:21:30;505.45;;;466.90;;
22768;SDS011;13001;51.968;5.918;2022-07-11T01:23:58;505.07;;;466.60;;
22768;SDS011;13001;51.968;5.918;2022-07-11T01:26:26;496.90;;;458.83;;
22768;SDS011;13001;51.968;5.918;2022-07-11T01:28:53;496.53;;;458.50;;
22768;SDS011;13001;51.968;5.918;2022-07-11T01:31:22;488.93;;;452.28;;
22768;SDS011;13001;51.968;5.918;2022-07-11T01:33:50;479.83;;;443.53;;
22768;SDS011;13001;51.968;5.918;2022-07-11T01:36:17;491.70;;;454.23;;
22768;SDS011;13001;51.968;5.918;2022-07-11T01:38:44;490.80;;;453.30;;
22768;SDS011;13001;51.968;5.918;2022-07-11T01:41:12;498.93;;;460.75;;
22768;SDS011;13001;51.968;5.918;2022-07-11T01:43:39;491.38;;;453.62;;
22768;SDS011;13001;51.968;5.918;2022-07-11T01:46:06;486.02;;;449.08;;
22768;SDS011;13001;51.968;5.918;2022-07-11T01:48:33;504.10;;;465.23;;
22768;SDS011;13001;51.968;5.918;2022-07-11T01:51:01;514.10;;;474.20;;
22768;SDS011;13001;51.968;5.918;2022-07-11T01:53:28;497.65;;;459.52;;
22768;SDS011;13001;51.968;5.918;2022-07-11T01:55:55;495.98;;;457.92;;
22768;SDS011;13001;51.968;5.918;2022-07-11T01:58:23;488.68;;;451.25;;
22768;SDS011;13001;51.968;5.918;2022-07-11T02:00:50;496.53;;;458.15;;
22768;SDS011;13001;51.968;5.918;2022-07-11T02:03:17;499.35;;;461.08;;
22768;SDS011;13001;51.968;5.918;2022-07-11T02:05:44;491.10;;;452.88;;
22768;SDS011;13001;51.968;5.918;2022-07-11T02:08:12;490.85;;;452.88;;
22768;SDS011;13001;51.968;5.918;2022-07-11T02:13:08;505.40;;;466.10;;
22768;SDS011;13001;51.968;5.918;2022-07-11T02:15:36;476.20;;;439.57;;
22768;SDS011;13001;51.968;5.918;2022-07-11T02:18:04;498.85;;;460.27;;
22768;SDS011;13001;51.968;5.918;2022-07-11T02:20:31;491.95;;;453.88;;
22768;SDS011;13001;51.968;5.918;2022-07-11T02:22:59;488.77;;;451.20;;
22768;SDS011;13001;51.968;5.918;2022-07-11T02:25:27;489.13;;;451.93;;
22768;SDS011;13001;51.968;5.918;2022-07-11T02:27:54;504.70;;;466.05;;
22768;SDS011;13001;51.968;5.918;2022-07-11T02:30:24;491.35;;;453.98;;
22768;SDS011;13001;51.968;5.918;2022-07-11T02:32:51;507.00;;;469.10;;
22768;SDS011;13001;51.968;5.918;2022-07-11T02:35:18;520.15;;;480.30;;
22768;SDS011;13001;51.968;5.918;2022-07-11T02:37:46;519.05;;;479.48;;
22768;SDS011;13001;51.968;5.918;2022-07-11T02:40:14;520.23;;;480.73;;
22768;SDS011;13001;51.968;5.918;2022-07-11T02:42:42;536.28;;;495.38;;
22768;SDS011;13001;51.968;5.918;2022-07-11T02:45:09;542.42;;;500.90;;
22768;SDS011;13001;51.968;5.918;2022-07-11T02:47:37;547.08;;;505.00;;
22768;SDS011;13001;51.968;5.918;2022-07-11T02:50:09;525.92;;;485.82;;
22768;SDS011;13001;51.968;5.918;2022-07-11T02:52:37;544.45;;;503.12;;
22768;SDS011;13001;51.968;5.918;2022-07-11T02:55:05;532.40;;;491.88;;
22768;SDS011;13001;51.968;5.918;2022-07-11T02:57:34;559.05;;;516.33;;
22768;SDS011;13001;51.968;5.918;2022-07-11T03:00:02;538.80;;;497.45;;
22768;SDS011;13001;51.968;5.918;2022-07-11T03:02:30;548.97;;;505.45;;
22768;SDS011;13001;51.968;5.918;2022-07-11T03:04:58;532.33;;;491.32;;
22768;SDS011;13001;51.968;5.918;2022-07-11T03:07:28;557.83;;;514.63;;
22768;SDS011;13001;51.968;5.918;2022-07-11T03:10:13;552.70;;;509.35;;
22768;SDS011;13001;51.968;5.918;2022-07-11T03:12:40;573.73;;;527.20;;
22768;SDS011;13001;51.968;5.918;2022-07-11T03:15:11;571.08;;;524.10;;
22768;SDS011;13001;51.968;5.918;2022-07-11T03:17:38;557.42;;;512.67;;
22768;SDS011;13001;51.968;5.918;2022-07-11T03:20:06;571.63;;;524.62;;
22768;SDS011;13001;51.968;5.918;2022-07-11T03:22:33;593.45;;;543.80;;
22768;SDS011;13001;51.968;5.918;2022-07-11T03:25:01;595.40;;;545.35;;
22768;SDS011;13001;51.968;5.918;2022-07-11T03:27:30;606.87;;;554.85;;
22768;SDS011;13001;51.968;5.918;2022-07-11T03:29:58;605.92;;;555.42;;
22768;SDS011;13001;51.968;5.918;2022-07-11T03:32:25;609.37;;;559.13;;
22768;SDS011;13001;51.968;5.918;2022-07-11T03:34:52;577.90;;;532.30;;
22768;SDS011;13001;51.968;5.918;2022-07-11T03:37:33;587.15;;;540.92;;
22768;SDS011;13001;51.968;5.918;2022-07-11T03:40:00;571.20;;;526.60;;
22768;SDS011;13001;51.968;5.918;2022-07-11T03:42:28;563.85;;;520.05;;
22768;SDS011;13001;51.968;5.918;2022-07-11T03:44:55;544.17;;;503.12;;
22768;SDS011;13001;51.968;5.918;2022-07-11T03:47:22;547.80;;;506.43;;
22768;SDS011;13001;51.968;5.918;2022-07-11T03:49:49;537.70;;;497.57;;
22768;SDS011;13001;51.968;5.918;2022-07-11T03:52:17;532.25;;;493.20;;
22768;SDS011;13001;51.968;5.918;2022-07-11T03:54:44;531.73;;;492.12;;
22768;SDS011;13001;51.968;5.918;2022-07-11T03:57:11;539.20;;;499.58;;
22768;SDS011;13001;51.968;5.918;2022-07-11T03:59:38;538.27;;;498.17;;
22768;SDS011;13001;51.968;5.918;2022-07-11T04:02:06;537.85;;;497.35;;
22768;SDS011;13001;51.968;5.918;2022-07-11T04:04:33;547.90;;;506.43;;
22768;SDS011;13001;51.968;5.918;2022-07-11T04:07:00;548.85;;;507.73;;
22768;SDS011;13001;51.968;5.918;2022-07-11T04:09:27;560.10;;;517.00;;
22768;SDS011;13001;51.968;5.918;2022-07-11T04:11:55;554.12;;;512.00;;
22768;SDS011;13001;51.968;5.918;2022-07-11T04:14:22;548.15;;;507.00;;
22768;SDS011;13001;51.968;5.918;2022-07-11T04:16:50;554.50;;;512.48;;
22768;SDS011;13001;51.968;5.918;2022-07-11T04:19:18;577.88;;;532.00;;
22768;SDS011;13001;51.968;5.918;2022-07-11T04:21:45;579.25;;;534.50;;
22768;SDS011;13001;51.968;5.918;2022-07-11T04:24:12;576.77;;;532.70;;
22768;SDS011;13001;51.968;5.918;2022-07-11T04:26:39;551.63;;;510.65;;
22768;SDS011;13001;51.968;5.918;2022-07-11T04:29:07;539.50;;;500.65;;
22768;SDS011;13001;51.968;5.918;2022-07-11T04:31:34;524.95;;;487.55;;
22768;SDS011;13001;51.968;5.918;2022-07-11T04:34:01;505.80;;;469.82;;
22768;SDS011;13001;51.968;5.918;2022-07-11T04:36:28;493.27;;;459.63;;
22768;SDS011;13001;51.968;5.918;2022-07-11T04:38:56;522.50;;;487.15;;
22768;SDS011;13001;51.968;5.918;2022-07-11T04:41:24;526.27;;;491.23;;
22768;SDS011;13001;51.968;5.918;2022-07-11T04:43:51;544.10;;;508.17;;
22768;SDS011;13001;51.968;5.918;2022-07-11T04:46:18;542.60;;;506.02;;
22768;SDS011;13001;51.968;5.918;2022-07-11T04:48:46;534.90;;;499.12;;
22768;SDS011;13001;51.968;5.918;2022-07-11T04:51:13;581.08;;;540.33;;
22768;SDS011;13001;51.968;5.918;2022-07-11T04:53:40;594.67;;;552.85;;
22768;SDS011;13001;51.968;5.918;2022-07-11T04:56:07;581.05;;;540.40;;
22768;SDS011;13001;51.968;5.918;2022-07-11T04:58:35;574.30;;;534.17;;
22768;SDS011;13001;51.968;5.918;2022-07-11T05:01:02;595.17;;;553.95;;
22768;SDS011;13001;51.968;5.918;2022-07-11T05:03:30;614.83;;;571.22;;
22768;SDS011;13001;51.968;5.918;2022-07-11T05:05:58;589.63;;;548.60;;
22768;SDS011;13001;51.968;5.918;2022-07-11T05:08:26;571.37;;;532.02;;
22768;SDS011;13001;51.968;5.918;2022-07-11T05:10:55;576.82;;;536.98;;
22768;SDS011;13001;51.968;5.918;2022-07-11T05:13:23;619.35;;;576.80;;
22768;SDS011;13001;51.968;5.918;2022-07-11T05:15:50;540.42;;;505.45;;
22768;SDS011;13001;51.968;5.918;2022-07-11T05:18:17;516.50;;;483.35;;
22768;SDS011;13001;51.968;5.918;2022-07-11T05:20:44;483.83;;;451.73;;
22768;SDS011;13001;51.968;5.918;2022-07-11T05:23:12;485.78;;;452.62;;
22768;SDS011;13001;51.968;5.918;2022-07-11T05:25:39;497.97;;;464.20;;
22768;SDS011;13001;51.968;5.918;2022-07-11T05:28:07;484.52;;;451.73;;
22768;SDS011;13001;51.968;5.918;2022-07-11T05:30:34;508.83;;;473.17;;
22768;SDS011;13001;51.968;5.918;2022-07-11T05:33:01;486.82;;;453.73;;
22768;SDS011;13001;51.968;5.918;2022-07-11T05:35:29;488.60;;;456.17;;
22768;SDS011;13001;51.968;5.918;2022-07-11T05:37:56;474.97;;;443.33;;
22768;SDS011;13001;51.968;5.918;2022-07-11T05:40:23;481.73;;;450.50;;
22768;SDS011;13001;51.968;5.918;2022-07-11T05:42:51;491.38;;;457.50;;
22768;SDS011;13001;51.968;5.918;2022-07-11T05:45:18;494.32;;;460.95;;
22768;SDS011;13001;51.968;5.918;2022-07-11T05:47:45;497.20;;;462.52;;
22768;SDS011;13001;51.968;5.918;2022-07-11T05:50:12;494.00;;;459.70;;
22768;SDS011;13001;51.968;5.918;2022-07-11T05:52:40;493.80;;;462.15;;
22768;SDS011;13001;51.968;5.918;2022-07-11T05:55:07;488.30;;;456.00;;
22768;SDS011;13001;51.968;5.918;2022-07-11T05:57:34;495.97;;;463.83;;
22768;SDS011;13001;51.968;5.918;2022-07-11T06:00:01;501.83;;;470.47;;
22768;SDS011;13001;51.968;5.918;2022-07-11T06:02:29;500.30;;;467.90;;
22768;SDS011;13001;51.968;5.918;2022-07-11T06:04:56;503.68;;;469.58;;
22768;SDS011;13001;51.968;5.918;2022-07-11T06:07:23;525.33;;;488.87;;
22768;SDS011;13001;51.968;5.918;2022-07-11T06:09:52;558.10;;;519.08;;
22768;SDS011;13001;51.968;5.918;2022-07-11T06:12:19;549.23;;;511.00;;
22768;SDS011;13001;51.968;5.918;2022-07-11T06:14:47;553.95;;;514.95;;
22768;SDS011;13001;51.968;5.918;2022-07-11T06:17:14;566.40;;;526.92;;
22768;SDS011;13001;51.968;5.918;2022-07-11T06:19:41;524.38;;;487.45;;
22768;SDS011;13001;51.968;5.918;2022-07-11T06:22:08;541.27;;;503.42;;
22768;SDS011;13001;51.968;5.918;2022-07-11T06:24:36;569.37;;;528.33;;
22768;SDS011;13001;51.968;5.918;2022-07-11T06:27:03;523.67;;;486.40;;
22768;SDS011;13001;51.968;5.918;2022-07-11T06:29:31;565.38;;;524.35;;
22768;SDS011;13001;51.968;5.918;2022-07-11T06:31:58;530.37;;;492.93;;
22768;SDS011;13001;51.968;5.918;2022-07-11T06:34:25;536.47;;;498.35;;
22768;SDS011;13001;51.968;5.918;2022-07-11T06:36:53;523.50;;;486.82;;
22768;SDS011;13001;51.968;5.918;2022-07-11T06:39:20;552.05;;;512.52;;
22768;SDS011;13001;51.968;5.918;2022-07-11T06:41:47;545.30;;;506.53;;
22768;SDS011;13001;51.968;5.918;2022-07-11T06:44:15;565.40;;;524.62;;
22768;SDS011;13001;51.968;5.918;2022-07-11T06:46:44;541.85;;;503.02;;
22768;SDS011;13001;51.968;5.918;2022-07-11T06:49:11;545.12;;;506.80;;
22768;SDS011;13001;51.968;5.918;2022-07-11T06:51:39;524.70;;;487.92;;
22768;SDS011;13001;51.968;5.918;2022-07-11T06:54:07;539.05;;;500.25;;
22768;SDS011;13001;51.968;5.918;2022-07-11T06:56:34;516.13;;;480.27;;
22768;SDS011;13001;51.968;5.918;2022-07-11T06:59:01;532.03;;;495.13;;
22768;SDS011;13001;51.968;5.918;2022-07-11T07:01:29;538.03;;;500.00;;
22768;SDS011;13001;51.968;5.918;2022-07-11T07:03:56;523.85;;;487.08;;
22768;SDS011;13001;51.968;5.918;2022-07-11T07:06:23;508.15;;;473.23;;
22768;SDS011;13001;51.968;5.918;2022-07-11T07:08:50;511.10;;;475.07;;
22768;SDS011;13001;51.968;5.918;2022-07-11T07:11:18;617.98;;;572.70;;
22768;SDS011;13001;51.968;5.918;2022-07-11T07:13:45;706.60;;;653.52;;
22768;SDS011;13001;51.968;5.918;2022-07-11T07:16:14;758.38;;;701.55;;
22768;SDS011;13001;51.968;5.918;2022-07-11T07:18:41;808.05;;;747.30;;
22768;SDS011;13001;51.968;5.918;2022-07-11T07:21:10;821.70;;;759.98;;
22768;SDS011;13001;51.968;5.918;2022-07-11T07:23:37;801.23;;;740.23;;
22768;SDS011;13001;51.968;5.918;2022-07-11T07:26:05;819.35;;;756.87;;
22768;SDS011;13001;51.968;5.918;2022-07-11T07:28:32;720.50;;;665.17;;
22768;SDS011;13001;51.968;5.918;2022-07-11T07:31:00;720.35;;;665.08;;
22768;SDS011;13001;51.968;5.918;2022-07-11T07:33:29;689.87;;;637.23;;
22768;SDS011;13001;51.968;5.918;2022-07-11T07:35:56;808.77;;;746.92;;
22768;SDS011;13001;51.968;5.918;2022-07-11T07:38:23;797.48;;;736.30;;
22768;SDS011;13001;51.968;5.918;2022-07-11T07:40:50;812.15;;;749.88;;
22768;SDS011;13001;51.968;5.918;2022-07-11T07:43:17;736.60;;;680.05;;
22768;SDS011;13001;51.968;5.918;2022-07-11T07:45:45;778.77;;;719.15;;
22768;SDS011;13001;51.968;5.918;2022-07-11T07:48:13;715.12;;;660.05;;
22768;SDS011;13001;51.968;5.918;2022-07-11T07:50:40;776.05;;;716.48;;
22768;SDS011;13001;51.968;5.918;2022-07-11T07:53:08;834.90;;;770.92;;
22768;SDS011;13001;51.968;5.918;2022-07-11T07:55:36;863.72;;;797.05;;
22768;SDS011;13001;51.968;5.918;2022-07-11T07:58:03;537.23;;;497.25;;
22768;SDS011;13001;51.968;5.918;2022-07-11T08:00:30;833.95;;;767.27;;
22768;SDS011;13001;51.968;5.918;2022-07-11T08:03:15;779.72;;;718.77;;
22768;SDS011;13001;51.968;5.918;2022-07-11T08:05:43;703.62;;;657.42;;
22768;SDS011;13001;51.968;5.918;2022-07-11T08:08:10;926.92;;;855.23;;
22768;SDS011;13001;51.968;5.918;2022-07-11T08:10:38;789.37;;;733.85;;
22768;SDS011;13001;51.968;5.918;2022-07-11T08:13:05;617.97;;;579.40;;
22768;SDS011;13001;51.968;5.918;2022-07-11T08:15:32;604.87;;;566.70;;
22768;SDS011;13001;51.968;5.918;2022-07-11T08:17:59;674.02;;;629.42;;
22768;SDS011;13001;51.968;5.918;2022-07-11T08:20:27;723.15;;;671.85;;
22768;SDS011;13001;51.968;5.918;2022-07-11T08:23:04;693.92;;;645.92;;
22768;SDS011;13001;51.968;5.918;2022-07-11T08:25:23;864.60;;;801.13;;
22768;SDS011;13001;51.968;5.918;2022-07-11T08:27:50;967.25;;;893.40;;
22768;SDS011;13001;51.968;5.918;2022-07-11T08:30:17;992.75;;;912.15;;
22768;SDS011;13001;51.968;5.918;2022-07-11T08:32:45;844.73;;;780.35;;
22768;SDS011;13001;51.968;5.918;2022-07-11T08:35:12;782.10;;;722.92;;
22768;SDS011;13001;51.968;5.918;2022-07-11T08:37:41;725.27;;;673.02;;
22768;SDS011;13001;51.968;5.918;2022-07-11T08:40:09;745.62;;;690.83;;
22768;SDS011;13001;51.968;5.918;2022-07-11T08:42:39;829.55;;;768.42;;
22768;SDS011;13001;51.968;5.918;2022-07-11T08:45:05;808.07;;;747.67;;
22768;SDS011;13001;51.968;5.918;2022-07-11T08:47:33;874.50;;;808.05;;
22768;SDS011;13001;51.968;5.918;2022-07-11T08:50:00;903.52;;;836.00;;
22768;SDS011;13001;51.968;5.918;2022-07-11T08:52:28;892.20;;;822.12;;
22768;SDS011;13001;51.968;5.918;2022-07-11T08:54:55;856.42;;;790.65;;
22768;SDS011;13001;51.968;5.918;2022-07-11T08:57:22;745.77;;;689.48;;
22768;SDS011;13001;51.968;5.918;2022-07-11T08:59:54;773.25;;;714.10;;
22768;SDS011;13001;51.968;5.918;2022-07-11T09:02:18;731.65;;;674.75;;
22768;SDS011;13001;51.968;5.918;2022-07-11T09:04:46;723.33;;;667.63;;
22768;SDS011;13001;51.968;5.918;2022-07-11T09:07:13;695.45;;;643.50;;
22768;SDS011;13001;51.968;5.918;2022-07-11T09:09:40;672.70;;;623.55;;
22768;SDS011;13001;51.968;5.918;2022-07-11T09:12:11;690.75;;;643.73;;
22768;SDS011;13001;51.968;5.918;2022-07-11T09:14:47;734.87;;;683.50;;
22768;SDS011;13001;51.968;5.918;2022-07-11T09:17:15;861.22;;;796.15;;
22768;SDS011;13001;51.968;5.918;2022-07-11T09:19:43;927.45;;;857.42;;
22768;SDS011;13001;51.968;5.918;2022-07-11T09:22:13;976.22;;;901.92;;
22768;SDS011;13001;51.968;5.918;2022-07-11T09:25:03;984.55;;;909.95;;
22768;SDS011;13001;51.968;5.918;2022-07-11T09:27:52;899.87;;;833.05;;
22768;SDS011;13001;51.968;5.918;2022-07-11T09:30:30;786.15;;;728.08;;
22768;SDS011;13001;51.968;5.918;2022-07-11T09:32:58;704.80;;;652.83;;
22768;SDS011;13001;51.968;5.918;2022-07-11T09:35:31;647.07;;;599.63;;
22768;SDS011;13001;51.968;5.918;2022-07-11T09:37:55;645.75;;;599.77;;
22768;SDS011;13001;51.968;5.918;2022-07-11T09:40:22;626.80;;;581.80;;
22768;SDS011;13001;51.968;5.918;2022-07-11T09:42:50;622.35;;;576.98;;
22768;SDS011;13001;51.968;5.918;2022-07-11T09:45:18;649.48;;;600.58;;
22768;SDS011;13001;51.968;5.918;2022-07-11T09:47:47;654.27;;;607.47;;
22768;SDS011;13001;51.968;5.918;2022-07-11T09:50:24;653.35;;;605.95;;
22768;SDS011;13001;51.968;5.918;2022-07-11T09:53:05;650.12;;;603.42;;
22768;SDS011;13001;51.968;5.918;2022-07-11T09:58:20;617.87;;;573.15;;
22768;SDS011;13001;51.968;5.918;2022-07-11T10:00:48;638.43;;;590.57;;
22768;SDS011;13001;51.968;5.918;2022-07-11T10:03:17;640.28;;;592.80;;
22768;SDS011;13001;51.968;5.918;2022-07-11T10:05:46;645.77;;;598.20;;
22768;SDS011;13001;51.968;5.918;2022-07-11T10:08:13;651.17;;;603.38;;
22768;SDS011;13001;51.968;5.918;2022-07-11T10:10:40;642.05;;;594.23;;
22768;SDS011;13001;51.968;5.918;2022-07-11T10:13:07;635.13;;;588.50;;
22768;SDS011;13001;51.968;5.918;2022-07-11T10:15:36;641.58;;;594.85;;
22768;SDS011;13001;51.968;5.918;2022-07-11T10:18:10;650.08;;;601.98;;
22768;SDS011;13001;51.968;5.918;2022-07-11T10:20:56;683.07;;;632.35;;
22768;SDS011;13001;51.968;5.918;2022-07-11T10:23:30;742.83;;;687.77;;
22768;SDS011;13001;51.968;5.918;2022-07-11T10:26:06;772.77;;;715.77;;
22768;SDS011;13001;51.968;5.918;2022-07-11T10:31:19;700.92;;;649.17;;
22768;SDS011;13001;51.968;5.918;2022-07-11T10:34:00;663.37;;;614.73;;
22768;SDS011;13001;51.968;5.918;2022-07-11T10:36:30;682.92;;;631.78;;
22768;SDS011;13001;51.968;5.918;2022-07-11T10:39:17;736.42;;;680.80;;
22768;SDS011;13001;51.968;5.918;2022-07-11T10:41:45;784.08;;;723.15;;
22768;SDS011;13001;51.968;5.918;2022-07-11T10:44:12;888.85;;;818.45;;
22768;SDS011;13001;51.968;5.918;2022-07-11T10:46:39;917.95;;;846.92;;
22768;SDS011;13001;51.968;5.918;2022-07-11T10:49:10;908.83;;;838.43;;
22768;SDS011;13001;51.968;5.918;2022-07-11T10:54:11;941.08;;;867.92;;
22768;SDS011;13001;51.968;5.918;2022-07-11T10:59:24;953.65;;;879.12;;
22768;SDS011;13001;51.968;5.918;2022-07-11T11:02:02;920.00;;;848.78;;
22768;SDS011;13001;51.968;5.918;2022-07-11T11:04:45;888.03;;;821.60;;
22768;SDS011;13001;51.968;5.918;2022-07-11T11:10:00;852.25;;;787.98;;
22768;SDS011;13001;51.968;5.918;2022-07-11T11:17:47;919.52;;;848.85;;
22768;SDS011;13001;51.968;5.918;2022-07-11T11:20:30;694.20;;;645.83;;
22768;SDS011;13001;51.968;5.918;2022-07-11T11:23:07;613.27;;;570.42;;
22768;SDS011;13001;51.968;5.918;2022-07-11T11:25:35;597.67;;;554.55;;
22768;SDS011;13001;51.968;5.918;2022-07-11T11:28:03;600.58;;;557.52;;
22768;SDS011;13001;51.968;5.918;2022-07-11T11:30:31;738.77;;;679.30;;
22768;SDS011;13001;51.968;5.918;2022-07-11T11:33:00;749.47;;;691.47;;
22768;SDS011;13001;51.968;5.918;2022-07-11T11:35:27;782.67;;;720.87;;
22768;SDS011;13001;51.968;5.918;2022-07-11T11:37:54;883.15;;;813.12;;
22768;SDS011;13001;51.968;5.918;2022-07-11T11:40:22;819.30;;;754.75;;
22768;SDS011;13001;51.968;5.918;2022-07-11T11:42:49;782.80;;;722.87;;
22768;SDS011;13001;51.968;5.918;2022-07-11T11:45:16;770.88;;;711.12;;
22768;SDS011;13001;51.968;5.918;2022-07-11T11:47:47;746.75;;;690.62;;
22768;SDS011;13001;51.968;5.918;2022-07-11T11:50:15;772.42;;;711.90;;
22768;SDS011;13001;51.968;5.918;2022-07-11T11:52:42;754.25;;;695.48;;
22768;SDS011;13001;51.968;5.918;2022-07-11T11:55:09;794.55;;;732.15;;
22768;SDS011;13001;51.968;5.918;2022-07-11T11:57:38;879.40;;;810.45;;
22768;SDS011;13001;51.968;5.918;2022-07-11T12:00:19;910.97;;;839.50;;
22768;SDS011;13001;51.968;5.918;2022-07-11T12:02:35;947.03;;;873.93;;
22768;SDS011;13001;51.968;5.918;2022-07-11T12:05:06;976.10;;;901.13;;
22768;SDS011;13001;51.968;5.918;2022-07-11T12:07:31;957.32;;;884.10;;
22768;SDS011;13001;51.968;5.918;2022-07-11T12:09:58;960.82;;;886.08;;
22768;SDS011;13001;51.968;5.918;2022-07-11T12:12:28;962.27;;;887.95;;
22768;SDS011;13001;51.968;5.918;2022-07-11T12:15:31;950.28;;;876.88;;
22768;SDS011;13001;51.968;5.918;2022-07-11T12:18:04;951.05;;;876.85;;
22768;SDS011;13001;51.968;5.918;2022-07-11T12:20:44;960.82;;;885.17;;
22768;SDS011;13001;51.968;5.918;2022-07-11T12:23:12;954.92;;;880.67;;
22768;SDS011;13001;51.968;5.918;2022-07-11T12:25:40;964.52;;;888.10;;
22768;SDS011;13001;51.968;5.918;2022-07-11T12:28:09;953.77;;;878.63;;
22768;SDS011;13001;51.968;5.918;2022-07-11T12:30:37;971.37;;;895.53;;
22768;SDS011;13001;51.968;5.918;2022-07-11T12:33:10;952.92;;;878.45;;
22768;SDS011;13001;51.968;5.918;2022-07-11T12:35:33;944.77;;;870.50;;
22768;SDS011;13001;51.968;5.918;2022-07-11T12:38:01;956.50;;;882.13;;
22768;SDS011;13001;51.968;5.918;2022-07-11T12:40:28;961.35;;;885.90;;
22768;SDS011;13001;51.968;5.918;2022-07-11T12:42:55;967.53;;;891.60;;
22768;SDS011;13001;51.968;5.918;2022-07-11T12:45:23;964.17;;;888.08;;
22768;SDS011;13001;51.968;5.918;2022-07-11T12:47:50;957.87;;;883.63;;
22768;SDS011;13001;51.968;5.918;2022-07-11T12:50:23;957.83;;;883.17;;
22768;SDS011;13001;51.968;5.918;2022-07-11T12:52:54;953.75;;;879.75;;
22768;SDS011;13001;51.968;5.918;2022-07-11T12:55:26;955.23;;;881.47;;
22768;SDS011;13001;51.968;5.918;2022-07-11T13:00:36;972.90;;;896.87;;
22768;SDS011;13001;51.968;5.918;2022-07-11T13:03:04;966.10;;;889.52;;
22768;SDS011;13001;51.968;5.918;2022-07-11T13:05:48;947.27;;;872.40;;
22768;SDS011;13001;51.968;5.918;2022-07-11T13:08:24;890.08;;;820.00;;
22768;SDS011;13001;51.968;5.918;2022-07-11T13:11:14;857.38;;;789.35;;
22768;SDS011;13001;51.968;5.918;2022-07-11T13:13:42;905.20;;;833.75;;
22768;SDS011;13001;51.968;5.918;2022-07-11T13:16:10;895.48;;;824.85;;
22768;SDS011;13001;51.968;5.918;2022-07-11T13:18:37;918.33;;;845.73;;
22768;SDS011;13001;51.968;5.918;2022-07-11T13:21:05;961.17;;;884.98;;
22768;SDS011;13001;51.968;5.918;2022-07-11T13:23:34;962.83;;;886.88;;
22768;SDS011;13001;51.968;5.918;2022-07-11T13:26:02;967.37;;;892.30;;
22768;SDS011;13001;51.968;5.918;2022-07-11T13:28:30;958.75;;;883.02;;
22768;SDS011;13001;51.968;5.918;2022-07-11T13:30:57;970.85;;;893.92;;
22768;SDS011;13001;51.968;5.918;2022-07-11T13:33:25;961.48;;;884.00;;
22768;SDS011;13001;51.968;5.918;2022-07-11T13:35:52;862.75;;;796.35;;
22768;SDS011;13001;51.968;5.918;2022-07-11T13:38:20;779.95;;;721.83;;
22768;SDS011;13001;51.968;5.918;2022-07-11T13:40:47;818.22;;;756.30;;
22768;SDS011;13001;51.968;5.918;2022-07-11T13:43:14;723.47;;;671.58;;
22768;SDS011;13001;51.968;5.918;2022-07-11T13:45:42;659.67;;;612.97;;
22768;SDS011;13001;51.968;5.918;2022-07-11T13:48:11;695.80;;;644.33;;
22768;SDS011;13001;51.968;5.918;2022-07-11T13:50:39;709.85;;;657.27;;
22768;SDS011;13001;51.968;5.918;2022-07-11T13:53:06;759.70;;;702.35;;
22768;SDS011;13001;51.968;5.918;2022-07-11T13:55:33;643.17;;;599.00;;
22768;SDS011;13001;51.968;5.918;2022-07-11T13:58:00;641.20;;;596.53;;
22768;SDS011;13001;51.968;5.918;2022-07-11T14:00:29;592.12;;;551.13;;
22768;SDS011;13001;51.968;5.918;2022-07-11T14:02:58;586.47;;;544.92;;
22768;SDS011;13001;51.968;5.918;2022-07-11T14:05:25;613.70;;;570.17;;
22768;SDS011;13001;51.968;5.918;2022-07-11T14:07:52;620.30;;;576.90;;
22768;SDS011;13001;51.968;5.918;2022-07-11T14:10:20;586.17;;;544.28;;
22768;SDS011;13001;51.968;5.918;2022-07-11T14:12:47;589.40;;;547.60;;
22768;SDS011;13001;51.968;5.918;2022-07-11T14:15:14;590.33;;;548.45;;
22768;SDS011;13001;51.968;5.918;2022-07-11T14:17:41;600.87;;;558.35;;
22768;SDS011;13001;51.968;5.918;2022-07-11T14:20:09;608.17;;;565.93;;
22768;SDS011;13001;51.968;5.918;2022-07-11T14:22:37;611.37;;;566.03;;
22768;SDS011;13001;51.968;5.918;2022-07-11T14:25:04;657.62;;;606.97;;
22768;SDS011;13001;51.968;5.918;2022-07-11T14:27:31;785.00;;;721.33;;